sensor_id;sensor_type;location;lat;lon;timestamp;P1;durP1;ratioP1;P2;durP2;ratioP2
23146;SDS011;11742;53.532;-1.478;2022-12-29T00:01:48;5.97;;;1.10;;
23146;SDS011;11742;53.532;-1.478;2022-12-29T00:04:14;2.92;;;0.98;;
23146;SDS011;11742;53.532;-1.478;2022-12-29T00:06:40;4.43;;;1.23;;
23146;SDS011;11742;53.532;-1.478;2022-12-29T00:09:07;3.70;;;1.05;;
23146;SDS011;11742;53.532;-1.478;2022-12-29T00:11:33;5.97;;;1.17;;
23146;SDS011;11742;53.532;-1.478;2022-12-29T00:13:59;3.75;;;1.13;;
23146;SDS011;11742;53.532;-1.478;2022-12-29T00:16:44;2.95;;;0.98;;
23146;SDS011;11742;53.532;-1.478;2022-12-29T00:19:10;3.08;;;1.00;;
23146;SDS011;11742;53.532;-1.478;2022-12-29T00:21:56;6.20;;;1.00;;
23146;SDS011;11742;53.532;-1.478;2022-12-29T00:24:41;5.50;;;1.30;;
23146;SDS011;11742;53.532;-1.478;2022-12-29T00:27:26;5.07;;;1.05;;
23146;SDS011;11742;53.532;-1.478;2022-12-29T00:30:13;4.05;;;1.05;;
23146;SDS011;11742;53.532;-1.478;2022-12-29T00:32:59;5.93;;;1.27;;
23146;SDS011;11742;53.532;-1.478;2022-12-29T00:35:53;5.85;;;2.22;;
23146;SDS011;11742;53.532;-1.478;2022-12-29T00:38:26;6.73;;;1.40;;
23146;SDS011;11742;53.532;-1.478;2022-12-29T00:41:13;4.68;;;1.40;;
23146;SDS011;11742;53.532;-1.478;2022-12-29T00:43:57;4.03;;;1.27;;
23146;SDS011;11742;53.532;-1.478;2022-12-29T00:46:36;6.32;;;1.33;;
23146;SDS011;11742;53.532;-1.478;2022-12-29T00:49:03;5.13;;;1.30;;
23146;SDS011;11742;53.532;-1.478;2022-12-29T00:51:48;4.55;;;1.23;;
23146;SDS011;11742;53.532;-1.478;2022-12-29T00:54:14;5.18;;;0.85;;
23146;SDS011;11742;53.532;-1.478;2022-12-29T00:56:40;6.32;;;1.25;;
23146;SDS011;11742;53.532;-1.478;2022-12-29T00:59:07;3.90;;;1.00;;
23146;SDS011;11742;53.532;-1.478;2022-12-29T01:01:35;4.30;;;1.25;;
23146;SDS011;11742;53.532;-1.478;2022-12-29T01:04:01;3.03;;;0.90;;
23146;SDS011;11742;53.532;-1.478;2022-12-29T01:06:27;8.15;;;1.17;;
23146;SDS011;11742;53.532;-1.478;2022-12-29T01:08:53;5.63;;;1.13;;
23146;SDS011;11742;53.532;-1.478;2022-12-29T01:11:40;4.57;;;1.17;;
23146;SDS011;11742;53.532;-1.478;2022-12-29T01:14:06;3.83;;;1.00;;
23146;SDS011;11742;53.532;-1.478;2022-12-29T01:16:32;4.13;;;1.00;;
23146;SDS011;11742;53.532;-1.478;2022-12-29T01:18:58;3.10;;;0.90;;
23146;SDS011;11742;53.532;-1.478;2022-12-29T01:21:23;6.15;;;1.20;;
23146;SDS011;11742;53.532;-1.478;2022-12-29T01:23:49;3.35;;;1.10;;
23146;SDS011;11742;53.532;-1.478;2022-12-29T01:26:16;5.00;;;0.57;;
23146;SDS011;11742;53.532;-1.478;2022-12-29T01:28:42;4.20;;;0.85;;
23146;SDS011;11742;53.532;-1.478;2022-12-29T01:31:11;3.78;;;0.95;;
23146;SDS011;11742;53.532;-1.478;2022-12-29T01:33:39;1.83;;;0.80;;
23146;SDS011;11742;53.532;-1.478;2022-12-29T01:36:06;3.38;;;1.00;;
23146;SDS011;11742;53.532;-1.478;2022-12-29T01:38:34;3.70;;;1.15;;
23146;SDS011;11742;53.532;-1.478;2022-12-29T01:41:01;1.25;;;0.73;;
23146;SDS011;11742;53.532;-1.478;2022-12-29T01:46:21;2.53;;;1.45;;
23146;SDS011;11742;53.532;-1.478;2022-12-29T01:51:44;2.10;;;0.60;;
23146;SDS011;11742;53.532;-1.478;2022-12-29T01:54:26;2.35;;;0.60;;
23146;SDS011;11742;53.532;-1.478;2022-12-29T01:56:57;2.70;;;0.70;;
23146;SDS011;11742;53.532;-1.478;2022-12-29T01:59:27;1.77;;;0.47;;
23146;SDS011;11742;53.532;-1.478;2022-12-29T02:01:59;1.52;;;0.50;;
23146;SDS011;11742;53.532;-1.478;2022-12-29T02:04:26;1.65;;;0.57;;
23146;SDS011;11742;53.532;-1.478;2022-12-29T02:07:00;0.82;;;0.55;;
23146;SDS011;11742;53.532;-1.478;2022-12-29T02:09:32;1.00;;;0.50;;
23146;SDS011;11742;53.532;-1.478;2022-12-29T02:11:58;0.70;;;0.50;;
23146;SDS011;11742;53.532;-1.478;2022-12-29T02:14:25;0.85;;;0.35;;
23146;SDS011;11742;53.532;-1.478;2022-12-29T02:17:14;0.30;;;0.30;;
23146;SDS011;11742;53.532;-1.478;2022-12-29T02:19:53;0.63;;;0.38;;
23146;SDS011;11742;53.532;-1.478;2022-12-29T02:34:26;1.30;;;0.68;;
23146;SDS011;11742;53.532;-1.478;2022-12-29T02:39:32;1.17;;;0.30;;
23146;SDS011;11742;53.532;-1.478;2022-12-29T02:42:13;0.28;;;0.28;;
23146;SDS011;11742;53.532;-1.478;2022-12-29T02:44:56;2.30;;;0.30;;
23146;SDS011;11742;53.532;-1.478;2022-12-29T02:50:38;0.38;;;0.22;;
23146;SDS011;11742;53.532;-1.478;2022-12-29T02:53:11;0.17;;;0.17;;
23146;SDS011;11742;53.532;-1.478;2022-12-29T02:55:47;0.57;;;0.38;;
23146;SDS011;11742;53.532;-1.478;2022-12-29T03:06:27;0.20;;;0.20;;
23146;SDS011;11742;53.532;-1.478;2022-12-29T03:09:29;0.60;;;0.40;;
23146;SDS011;11742;53.532;-1.478;2022-12-29T03:17:56;0.57;;;0.30;;
23146;SDS011;11742;53.532;-1.478;2022-12-29T03:20:40;1.25;;;0.32;;
23146;SDS011;11742;53.532;-1.478;2022-12-29T03:23:13;0.63;;;0.30;;
23146;SDS011;11742;53.532;-1.478;2022-12-29T03:25:40;0.30;;;0.30;;
23146;SDS011;11742;53.532;-1.478;2022-12-29T03:28:13;0.45;;;0.30;;
23146;SDS011;11742;53.532;-1.478;2022-12-29T03:30:45;0.95;;;0.40;;
23146;SDS011;11742;53.532;-1.478;2022-12-29T03:33:12;1.80;;;0.60;;
23146;SDS011;11742;53.532;-1.478;2022-12-29T03:35:41;1.15;;;0.38;;
23146;SDS011;11742;53.532;-1.478;2022-12-29T03:38:16;0.50;;;0.30;;
23146;SDS011;11742;53.532;-1.478;2022-12-29T03:41:03;0.57;;;0.30;;
23146;SDS011;11742;53.532;-1.478;2022-12-29T03:43:31;0.30;;;0.30;;
23146;SDS011;11742;53.532;-1.478;2022-12-29T03:45:57;0.63;;;0.50;;
23146;SDS011;11742;53.532;-1.478;2022-12-29T03:48:23;1.73;;;0.38;;
23146;SDS011;11742;53.532;-1.478;2022-12-29T03:50:49;1.52;;;0.40;;
23146;SDS011;11742;53.532;-1.478;2022-12-29T03:53:14;0.80;;;0.30;;
23146;SDS011;11742;53.532;-1.478;2022-12-29T03:55:40;0.30;;;0.30;;
23146;SDS011;11742;53.532;-1.478;2022-12-29T03:58:06;0.40;;;0.30;;
23146;SDS011;11742;53.532;-1.478;2022-12-29T04:00:32;0.88;;;0.40;;
23146;SDS011;11742;53.532;-1.478;2022-12-29T04:02:57;0.55;;;0.32;;
23146;SDS011;11742;53.532;-1.478;2022-12-29T04:05:23;1.75;;;0.32;;
23146;SDS011;11742;53.532;-1.478;2022-12-29T04:07:49;0.30;;;0.30;;
23146;SDS011;11742;53.532;-1.478;2022-12-29T04:10:14;0.75;;;0.40;;
23146;SDS011;11742;53.532;-1.478;2022-12-29T04:12:40;1.20;;;0.47;;
23146;SDS011;11742;53.532;-1.478;2022-12-29T04:15:07;3.70;;;1.55;;
23146;SDS011;11742;53.532;-1.478;2022-12-29T04:17:33;0.90;;;0.47;;
23146;SDS011;11742;53.532;-1.478;2022-12-29T04:19:59;0.65;;;0.45;;
23146;SDS011;11742;53.532;-1.478;2022-12-29T04:22:43;1.05;;;0.40;;
23146;SDS011;11742;53.532;-1.478;2022-12-29T04:25:08;0.45;;;0.30;;
23146;SDS011;11742;53.532;-1.478;2022-12-29T04:27:34;4.25;;;0.50;;
23146;SDS011;11742;53.532;-1.478;2022-12-29T04:30:00;0.98;;;0.47;;
23146;SDS011;11742;53.532;-1.478;2022-12-29T04:32:26;3.38;;;0.60;;
23146;SDS011;11742;53.532;-1.478;2022-12-29T04:34:51;0.85;;;0.40;;
23146;SDS011;11742;53.532;-1.478;2022-12-29T04:37:17;0.40;;;0.40;;
23146;SDS011;11742;53.532;-1.478;2022-12-29T04:39:43;2.55;;;0.50;;
23146;SDS011;11742;53.532;-1.478;2022-12-29T04:42:08;1.08;;;0.70;;
23146;SDS011;11742;53.532;-1.478;2022-12-29T04:44:34;1.77;;;0.73;;
23146;SDS011;11742;53.532;-1.478;2022-12-29T04:46:59;0.75;;;0.52;;
23146;SDS011;11742;53.532;-1.478;2022-12-29T04:49:25;1.33;;;0.40;;
23146;SDS011;11742;53.532;-1.478;2022-12-29T04:51:50;0.50;;;0.50;;
23146;SDS011;11742;53.532;-1.478;2022-12-29T04:54:16;2.20;;;0.50;;
23146;SDS011;11742;53.532;-1.478;2022-12-29T04:56:42;1.10;;;0.50;;
23146;SDS011;11742;53.532;-1.478;2022-12-29T04:59:07;0.90;;;0.50;;
23146;SDS011;11742;53.532;-1.478;2022-12-29T05:01:33;2.38;;;0.50;;
23146;SDS011;11742;53.532;-1.478;2022-12-29T05:03:58;1.38;;;0.70;;
23146;SDS011;11742;53.532;-1.478;2022-12-29T05:06:24;1.20;;;0.50;;
23146;SDS011;11742;53.532;-1.478;2022-12-29T05:08:50;1.63;;;0.57;;
23146;SDS011;11742;53.532;-1.478;2022-12-29T05:11:15;1.75;;;0.77;;
23146;SDS011;11742;53.532;-1.478;2022-12-29T05:13:41;2.33;;;0.55;;
23146;SDS011;11742;53.532;-1.478;2022-12-29T05:16:10;3.08;;;0.80;;
23146;SDS011;11742;53.532;-1.478;2022-12-29T05:18:36;1.70;;;0.70;;
23146;SDS011;11742;53.532;-1.478;2022-12-29T05:21:02;1.55;;;0.70;;
23146;SDS011;11742;53.532;-1.478;2022-12-29T05:23:27;2.80;;;0.73;;
23146;SDS011;11742;53.532;-1.478;2022-12-29T05:25:53;1.33;;;0.70;;
23146;SDS011;11742;53.532;-1.478;2022-12-29T05:28:18;2.42;;;0.90;;
23146;SDS011;11742;53.532;-1.478;2022-12-29T05:30:46;2.95;;;0.93;;
23146;SDS011;11742;53.532;-1.478;2022-12-29T05:33:13;0.88;;;0.52;;
23146;SDS011;11742;53.532;-1.478;2022-12-29T05:35:39;1.13;;;0.52;;
23146;SDS011;11742;53.532;-1.478;2022-12-29T05:38:05;4.28;;;0.95;;
23146;SDS011;11742;53.532;-1.478;2022-12-29T05:40:30;3.70;;;0.75;;
23146;SDS011;11742;53.532;-1.478;2022-12-29T05:42:56;1.10;;;0.50;;
23146;SDS011;11742;53.532;-1.478;2022-12-29T05:45:22;2.35;;;0.80;;
23146;SDS011;11742;53.532;-1.478;2022-12-29T05:47:47;1.63;;;0.57;;
23146;SDS011;11742;53.532;-1.478;2022-12-29T05:50:13;1.92;;;0.70;;
23146;SDS011;11742;53.532;-1.478;2022-12-29T05:52:38;4.00;;;1.15;;
23146;SDS011;11742;53.532;-1.478;2022-12-29T05:55:04;3.58;;;0.93;;
23146;SDS011;11742;53.532;-1.478;2022-12-29T05:57:30;1.20;;;0.68;;
23146;SDS011;11742;53.532;-1.478;2022-12-29T05:59:56;0.95;;;0.60;;
23146;SDS011;11742;53.532;-1.478;2022-12-29T06:02:22;1.30;;;0.70;;
23146;SDS011;11742;53.532;-1.478;2022-12-29T06:04:47;3.03;;;0.70;;
23146;SDS011;11742;53.532;-1.478;2022-12-29T06:07:13;2.10;;;0.80;;
23146;SDS011;11742;53.532;-1.478;2022-12-29T06:09:39;1.60;;;0.70;;
23146;SDS011;11742;53.532;-1.478;2022-12-29T06:12:04;2.53;;;0.60;;
23146;SDS011;11742;53.532;-1.478;2022-12-29T06:14:30;2.95;;;0.90;;
23146;SDS011;11742;53.532;-1.478;2022-12-29T06:16:56;3.75;;;1.10;;
23146;SDS011;11742;53.532;-1.478;2022-12-29T06:19:21;1.92;;;0.60;;
23146;SDS011;11742;53.532;-1.478;2022-12-29T06:21:47;3.10;;;0.95;;
23146;SDS011;11742;53.532;-1.478;2022-12-29T06:24:13;2.78;;;0.50;;
23146;SDS011;11742;53.532;-1.478;2022-12-29T06:26:38;2.28;;;0.70;;
23146;SDS011;11742;53.532;-1.478;2022-12-29T06:29:05;1.90;;;0.55;;
23146;SDS011;11742;53.532;-1.478;2022-12-29T06:31:33;4.03;;;0.70;;
23146;SDS011;11742;53.532;-1.478;2022-12-29T06:33:58;2.13;;;0.50;;
23146;SDS011;11742;53.532;-1.478;2022-12-29T06:36:24;1.42;;;0.60;;
23146;SDS011;11742;53.532;-1.478;2022-12-29T06:38:50;1.15;;;0.65;;
23146;SDS011;11742;53.532;-1.478;2022-12-29T06:41:17;1.45;;;0.60;;
23146;SDS011;11742;53.532;-1.478;2022-12-29T06:43:44;1.95;;;0.65;;
23146;SDS011;11742;53.532;-1.478;2022-12-29T06:46:09;1.20;;;0.60;;
23146;SDS011;11742;53.532;-1.478;2022-12-29T06:48:35;1.67;;;0.60;;
23146;SDS011;11742;53.532;-1.478;2022-12-29T06:51:01;1.67;;;0.70;;
23146;SDS011;11742;53.532;-1.478;2022-12-29T06:53:26;0.75;;;0.55;;
23146;SDS011;11742;53.532;-1.478;2022-12-29T06:55:52;2.50;;;0.82;;
23146;SDS011;11742;53.532;-1.478;2022-12-29T06:58:18;1.42;;;0.70;;
23146;SDS011;11742;53.532;-1.478;2022-12-29T07:00:43;0.43;;;0.40;;
23146;SDS011;11742;53.532;-1.478;2022-12-29T07:03:09;0.85;;;0.60;;
23146;SDS011;11742;53.532;-1.478;2022-12-29T07:05:34;1.27;;;0.70;;
23146;SDS011;11742;53.532;-1.478;2022-12-29T07:08:00;0.88;;;0.50;;
23146;SDS011;11742;53.532;-1.478;2022-12-29T07:10:26;1.55;;;0.40;;
23146;SDS011;11742;53.532;-1.478;2022-12-29T07:12:52;2.97;;;0.80;;
23146;SDS011;11742;53.532;-1.478;2022-12-29T07:15:17;0.85;;;0.50;;
23146;SDS011;11742;53.532;-1.478;2022-12-29T07:17:43;2.22;;;0.80;;
23146;SDS011;11742;53.532;-1.478;2022-12-29T07:20:09;1.85;;;0.52;;
23146;SDS011;11742;53.532;-1.478;2022-12-29T07:22:35;0.95;;;0.40;;
23146;SDS011;11742;53.532;-1.478;2022-12-29T07:25:00;1.25;;;0.57;;
23146;SDS011;11742;53.532;-1.478;2022-12-29T07:27:27;1.77;;;0.55;;
23146;SDS011;11742;53.532;-1.478;2022-12-29T07:29:53;1.30;;;0.70;;
23146;SDS011;11742;53.532;-1.478;2022-12-29T07:32:18;0.57;;;0.43;;
23146;SDS011;11742;53.532;-1.478;2022-12-29T07:34:44;1.30;;;0.60;;
23146;SDS011;11742;53.532;-1.478;2022-12-29T07:37:12;1.70;;;0.50;;
23146;SDS011;11742;53.532;-1.478;2022-12-29T07:39:39;1.52;;;0.70;;
23146;SDS011;11742;53.532;-1.478;2022-12-29T07:42:05;2.42;;;0.60;;
23146;SDS011;11742;53.532;-1.478;2022-12-29T07:44:30;1.15;;;0.57;;
23146;SDS011;11742;53.532;-1.478;2022-12-29T07:46:56;1.10;;;0.50;;
23146;SDS011;11742;53.532;-1.478;2022-12-29T07:49:22;0.95;;;0.60;;
23146;SDS011;11742;53.532;-1.478;2022-12-29T07:51:48;1.02;;;0.50;;
23146;SDS011;11742;53.532;-1.478;2022-12-29T07:54:13;0.40;;;0.40;;
23146;SDS011;11742;53.532;-1.478;2022-12-29T07:56:42;1.02;;;0.43;;
23146;SDS011;11742;53.532;-1.478;2022-12-29T07:59:07;0.73;;;0.50;;
23146;SDS011;11742;53.532;-1.478;2022-12-29T08:01:33;1.48;;;0.60;;
23146;SDS011;11742;53.532;-1.478;2022-12-29T08:03:58;0.63;;;0.40;;
23146;SDS011;11742;53.532;-1.478;2022-12-29T08:06:24;3.17;;;0.50;;
23146;SDS011;11742;53.532;-1.478;2022-12-29T08:08:50;0.73;;;0.50;;
23146;SDS011;11742;53.532;-1.478;2022-12-29T08:11:15;1.38;;;0.70;;
23146;SDS011;11742;53.532;-1.478;2022-12-29T08:13:41;0.40;;;0.40;;
23146;SDS011;11742;53.532;-1.478;2022-12-29T08:16:06;2.38;;;0.60;;
23146;SDS011;11742;53.532;-1.478;2022-12-29T08:18:32;0.80;;;0.55;;
23146;SDS011;11742;53.532;-1.478;2022-12-29T08:21:01;2.58;;;0.80;;
23146;SDS011;11742;53.532;-1.478;2022-12-29T08:23:28;0.70;;;0.50;;
23146;SDS011;11742;53.532;-1.478;2022-12-29T08:26:00;1.65;;;0.68;;
23146;SDS011;11742;53.532;-1.478;2022-12-29T08:28:28;0.75;;;0.50;;
23146;SDS011;11742;53.532;-1.478;2022-12-29T08:30:57;0.43;;;0.43;;
23146;SDS011;11742;53.532;-1.478;2022-12-29T08:33:23;0.65;;;0.45;;
23146;SDS011;11742;53.532;-1.478;2022-12-29T08:35:49;1.70;;;0.50;;
23146;SDS011;11742;53.532;-1.478;2022-12-29T08:38:15;1.40;;;0.50;;
23146;SDS011;11742;53.532;-1.478;2022-12-29T08:40:40;0.75;;;0.50;;
23146;SDS011;11742;53.532;-1.478;2022-12-29T08:43:06;0.80;;;0.50;;
23146;SDS011;11742;53.532;-1.478;2022-12-29T08:45:32;0.57;;;0.52;;
23146;SDS011;11742;53.532;-1.478;2022-12-29T08:47:57;3.80;;;0.63;;
23146;SDS011;11742;53.532;-1.478;2022-12-29T08:50:23;2.75;;;0.52;;
23146;SDS011;11742;53.532;-1.478;2022-12-29T08:52:49;3.60;;;1.00;;
23146;SDS011;11742;53.532;-1.478;2022-12-29T08:55:14;5.45;;;0.88;;
23146;SDS011;11742;53.532;-1.478;2022-12-29T08:57:40;1.80;;;0.70;;
23146;SDS011;11742;53.532;-1.478;2022-12-29T09:00:06;2.78;;;0.70;;
23146;SDS011;11742;53.532;-1.478;2022-12-29T09:02:32;2.15;;;0.88;;
23146;SDS011;11742;53.532;-1.478;2022-12-29T09:04:58;3.67;;;0.85;;
23146;SDS011;11742;53.532;-1.478;2022-12-29T09:07:25;15.38;;;1.08;;
23146;SDS011;11742;53.532;-1.478;2022-12-29T09:09:50;9.38;;;0.93;;
23146;SDS011;11742;53.532;-1.478;2022-12-29T09:12:17;3.85;;;0.63;;
23146;SDS011;11742;53.532;-1.478;2022-12-29T09:14:43;3.78;;;0.90;;
23146;SDS011;11742;53.532;-1.478;2022-12-29T09:17:10;3.08;;;0.80;;
23146;SDS011;11742;53.532;-1.478;2022-12-29T09:19:54;1.63;;;0.60;;
23146;SDS011;11742;53.532;-1.478;2022-12-29T09:22:20;0.93;;;0.60;;
23146;SDS011;11742;53.532;-1.478;2022-12-29T09:24:46;3.72;;;0.80;;
23146;SDS011;11742;53.532;-1.478;2022-12-29T09:27:11;7.78;;;1.65;;
23146;SDS011;11742;53.532;-1.478;2022-12-29T09:29:37;2.53;;;0.77;;
23146;SDS011;11742;53.532;-1.478;2022-12-29T09:32:03;3.05;;;0.50;;
23146;SDS011;11742;53.532;-1.478;2022-12-29T09:34:29;2.33;;;0.60;;
23146;SDS011;11742;53.532;-1.478;2022-12-29T09:36:54;1.95;;;0.60;;
23146;SDS011;11742;53.532;-1.478;2022-12-29T09:39:21;3.15;;;0.60;;
23146;SDS011;11742;53.532;-1.478;2022-12-29T09:41:52;0.98;;;0.40;;
23146;SDS011;11742;53.532;-1.478;2022-12-29T09:44:26;0.52;;;0.40;;
23146;SDS011;11742;53.532;-1.478;2022-12-29T09:46:56;1.42;;;0.55;;
23146;SDS011;11742;53.532;-1.478;2022-12-29T09:54:57;0.93;;;0.40;;
23146;SDS011;11742;53.532;-1.478;2022-12-29T09:57:36;0.98;;;0.45;;
23146;SDS011;11742;53.532;-1.478;2022-12-29T10:00:18;1.30;;;0.50;;
23146;SDS011;11742;53.532;-1.478;2022-12-29T10:05:35;0.93;;;0.30;;
23146;SDS011;11742;53.532;-1.478;2022-12-29T10:08:10;3.30;;;0.60;;
23146;SDS011;11742;53.532;-1.478;2022-12-29T10:10:50;1.40;;;0.38;;
23146;SDS011;11742;53.532;-1.478;2022-12-29T10:25:18;2.28;;;0.60;;
23146;SDS011;11742;53.532;-1.478;2022-12-29T10:27:49;3.10;;;0.63;;
23146;SDS011;11742;53.532;-1.478;2022-12-29T10:30:16;1.35;;;0.70;;
23146;SDS011;11742;53.532;-1.478;2022-12-29T10:35:16;2.22;;;0.70;;
23146;SDS011;11742;53.532;-1.478;2022-12-29T10:43:58;1.48;;;0.80;;
23146;SDS011;11742;53.532;-1.478;2022-12-29T10:46:33;2.70;;;0.88;;
23146;SDS011;11742;53.532;-1.478;2022-12-29T10:49:01;4.32;;;0.90;;
23146;SDS011;11742;53.532;-1.478;2022-12-29T10:51:32;1.08;;;0.60;;
23146;SDS011;11742;53.532;-1.478;2022-12-29T10:54:18;3.65;;;0.82;;
23146;SDS011;11742;53.532;-1.478;2022-12-29T10:56:57;2.88;;;1.08;;
23146;SDS011;11742;53.532;-1.478;2022-12-29T10:59:33;2.30;;;1.15;;
23146;SDS011;11742;53.532;-1.478;2022-12-29T11:04:40;1.83;;;0.65;;
23146;SDS011;11742;53.532;-1.478;2022-12-29T11:07:17;1.77;;;0.50;;
23146;SDS011;11742;53.532;-1.478;2022-12-29T11:09:44;7.00;;;1.20;;
23146;SDS011;11742;53.532;-1.478;2022-12-29T11:12:29;5.85;;;1.45;;
23146;SDS011;11742;53.532;-1.478;2022-12-29T11:15:01;4.68;;;1.00;;
23146;SDS011;11742;53.532;-1.478;2022-12-29T11:17:29;3.13;;;1.10;;
23146;SDS011;11742;53.532;-1.478;2022-12-29T11:22:53;4.30;;;1.25;;
23146;SDS011;11742;53.532;-1.478;2022-12-29T11:25:19;4.18;;;1.00;;
23146;SDS011;11742;53.532;-1.478;2022-12-29T11:28:12;2.60;;;0.95;;
23146;SDS011;11742;53.532;-1.478;2022-12-29T11:30:41;7.25;;;0.90;;
23146;SDS011;11742;53.532;-1.478;2022-12-29T11:33:08;3.08;;;0.80;;
23146;SDS011;11742;53.532;-1.478;2022-12-29T11:38:18;4.10;;;1.10;;
23146;SDS011;11742;53.532;-1.478;2022-12-29T11:40:46;2.17;;;0.70;;
23146;SDS011;11742;53.532;-1.478;2022-12-29T11:43:32;3.03;;;0.93;;
23146;SDS011;11742;53.532;-1.478;2022-12-29T11:46:02;3.63;;;0.77;;
23146;SDS011;11742;53.532;-1.478;2022-12-29T11:48:29;2.80;;;1.23;;
23146;SDS011;11742;53.532;-1.478;2022-12-29T11:51:03;4.75;;;0.88;;
23146;SDS011;11742;53.532;-1.478;2022-12-29T11:56:01;5.00;;;0.90;;
23146;SDS011;11742;53.532;-1.478;2022-12-29T11:58:30;3.67;;;0.93;;
23146;SDS011;11742;53.532;-1.478;2022-12-29T12:00:59;4.57;;;1.05;;
23146;SDS011;11742;53.532;-1.478;2022-12-29T12:04:34;3.88;;;0.98;;
23146;SDS011;11742;53.532;-1.478;2022-12-29T12:06:48;4.20;;;1.13;;
23146;SDS011;11742;53.532;-1.478;2022-12-29T12:11:52;6.05;;;1.35;;
23146;SDS011;11742;53.532;-1.478;2022-12-29T12:14:21;4.45;;;1.20;;
23146;SDS011;11742;53.532;-1.478;2022-12-29T12:16:53;4.80;;;1.00;;
23146;SDS011;11742;53.532;-1.478;2022-12-29T12:22:12;3.58;;;0.88;;
23146;SDS011;11742;53.532;-1.478;2022-12-29T12:24:53;5.47;;;1.17;;
23146;SDS011;11742;53.532;-1.478;2022-12-29T12:27:44;4.75;;;1.02;;
23146;SDS011;11742;53.532;-1.478;2022-12-29T12:33:05;4.80;;;1.08;;
23146;SDS011;11742;53.532;-1.478;2022-12-29T12:35:50;3.70;;;1.17;;
23146;SDS011;11742;53.532;-1.478;2022-12-29T12:41:30;5.38;;;1.35;;
23146;SDS011;11742;53.532;-1.478;2022-12-29T12:44:14;4.30;;;1.10;;
23146;SDS011;11742;53.532;-1.478;2022-12-29T12:55:23;2.50;;;0.80;;
23146;SDS011;11742;53.532;-1.478;2022-12-29T13:06:51;5.88;;;1.00;;
23146;SDS011;11742;53.532;-1.478;2022-12-29T13:18:44;5.30;;;0.82;;
23146;SDS011;11742;53.532;-1.478;2022-12-29T13:20:52;3.95;;;1.20;;
23146;SDS011;11742;53.532;-1.478;2022-12-29T13:23:34;16.80;;;1.75;;
23146;SDS011;11742;53.532;-1.478;2022-12-29T13:26:21;14.82;;;1.80;;
23146;SDS011;11742;53.532;-1.478;2022-12-29T13:29:04;5.10;;;1.20;;
23146;SDS011;11742;53.532;-1.478;2022-12-29T13:37:04;6.57;;;1.25;;
23146;SDS011;11742;53.532;-1.478;2022-12-29T13:39:41;7.00;;;1.08;;
23146;SDS011;11742;53.532;-1.478;2022-12-29T13:42:10;6.22;;;1.45;;
23146;SDS011;11742;53.532;-1.478;2022-12-29T13:44:40;3.33;;;1.20;;
23146;SDS011;11742;53.532;-1.478;2022-12-29T13:49:45;5.97;;;2.05;;
23146;SDS011;11742;53.532;-1.478;2022-12-29T13:52:23;3.38;;;0.80;;
23146;SDS011;11742;53.532;-1.478;2022-12-29T14:00:27;5.35;;;1.25;;
23146;SDS011;11742;53.532;-1.478;2022-12-29T14:05:41;3.55;;;0.95;;
23146;SDS011;11742;53.532;-1.478;2022-12-29T14:08:15;7.13;;;0.90;;
23146;SDS011;11742;53.532;-1.478;2022-12-29T14:10:50;1.63;;;0.85;;
23146;SDS011;11742;53.532;-1.478;2022-12-29T14:15:53;2.80;;;0.88;;
23146;SDS011;11742;53.532;-1.478;2022-12-29T14:20:54;4.72;;;1.10;;
23146;SDS011;11742;53.532;-1.478;2022-12-29T14:28:39;2.90;;;0.90;;
23146;SDS011;11742;53.532;-1.478;2022-12-29T14:33:40;1.35;;;0.68;;
23146;SDS011;11742;53.532;-1.478;2022-12-29T14:36:39;4.63;;;0.95;;
23146;SDS011;11742;53.532;-1.478;2022-12-29T14:39:28;2.08;;;0.80;;
23146;SDS011;11742;53.532;-1.478;2022-12-29T14:42:14;4.20;;;0.90;;
23146;SDS011;11742;53.532;-1.478;2022-12-29T14:44:51;1.10;;;0.52;;
23146;SDS011;11742;53.532;-1.478;2022-12-29T14:49:56;3.58;;;0.70;;
23146;SDS011;11742;53.532;-1.478;2022-12-29T14:57:49;2.17;;;0.75;;
23146;SDS011;11742;53.532;-1.478;2022-12-29T15:02:54;1.30;;;0.68;;
23146;SDS011;11742;53.532;-1.478;2022-12-29T15:05:45;3.80;;;0.88;;
23146;SDS011;11742;53.532;-1.478;2022-12-29T15:08:21;2.60;;;0.88;;
23146;SDS011;11742;53.532;-1.478;2022-12-29T15:13:24;2.80;;;0.70;;
23146;SDS011;11742;53.532;-1.478;2022-12-29T15:15:58;1.77;;;0.80;;
23146;SDS011;11742;53.532;-1.478;2022-12-29T15:18:26;2.95;;;1.00;;
23146;SDS011;11742;53.532;-1.478;2022-12-29T15:21:01;2.78;;;0.75;;
23146;SDS011;11742;53.532;-1.478;2022-12-29T15:23:30;2.90;;;0.90;;
23146;SDS011;11742;53.532;-1.478;2022-12-29T15:26:04;3.15;;;0.70;;
23146;SDS011;11742;53.532;-1.478;2022-12-29T15:31:12;3.95;;;1.10;;
23146;SDS011;11742;53.532;-1.478;2022-12-29T15:33:44;3.15;;;1.00;;
23146;SDS011;11742;53.532;-1.478;2022-12-29T15:36:17;2.67;;;0.57;;
23146;SDS011;11742;53.532;-1.478;2022-12-29T15:38:48;2.55;;;0.98;;
23146;SDS011;11742;53.532;-1.478;2022-12-29T15:44:03;3.03;;;0.93;;
23146;SDS011;11742;53.532;-1.478;2022-12-29T15:46:38;1.48;;;0.77;;
23146;SDS011;11742;53.532;-1.478;2022-12-29T15:49:05;4.80;;;1.00;;
23146;SDS011;11742;53.532;-1.478;2022-12-29T15:51:38;1.90;;;0.70;;
23146;SDS011;11742;53.532;-1.478;2022-12-29T15:54:05;2.28;;;0.80;;
23146;SDS011;11742;53.532;-1.478;2022-12-29T15:56:39;1.40;;;0.80;;
23146;SDS011;11742;53.532;-1.478;2022-12-29T15:59:20;1.98;;;0.70;;
23146;SDS011;11742;53.532;-1.478;2022-12-29T16:01:59;2.53;;;0.80;;
23146;SDS011;11742;53.532;-1.478;2022-12-29T16:04:29;3.38;;;0.80;;
23146;SDS011;11742;53.532;-1.478;2022-12-29T16:07:00;4.38;;;1.10;;
23146;SDS011;11742;53.532;-1.478;2022-12-29T16:09:34;3.70;;;1.02;;
23146;SDS011;11742;53.532;-1.478;2022-12-29T16:12:06;1.45;;;0.75;;
23146;SDS011;11742;53.532;-1.478;2022-12-29T16:14:48;1.65;;;0.70;;
23146;SDS011;11742;53.532;-1.478;2022-12-29T16:17:20;1.92;;;0.88;;
23146;SDS011;11742;53.532;-1.478;2022-12-29T16:19:52;3.40;;;0.80;;
23146;SDS011;11742;53.532;-1.478;2022-12-29T16:22:26;1.55;;;0.70;;
23146;SDS011;11742;53.532;-1.478;2022-12-29T16:25:02;1.80;;;0.50;;
23146;SDS011;11742;53.532;-1.478;2022-12-29T16:27:41;2.70;;;0.70;;
23146;SDS011;11742;53.532;-1.478;2022-12-29T16:32:54;2.38;;;0.90;;
23146;SDS011;11742;53.532;-1.478;2022-12-29T16:35:25;3.63;;;1.05;;
23146;SDS011;11742;53.532;-1.478;2022-12-29T16:40:49;3.20;;;0.77;;
23146;SDS011;11742;53.532;-1.478;2022-12-29T16:43:26;1.50;;;0.63;;
23146;SDS011;11742;53.532;-1.478;2022-12-29T16:48:33;4.20;;;0.90;;
23146;SDS011;11742;53.532;-1.478;2022-12-29T16:54:13;2.78;;;0.80;;
23146;SDS011;11742;53.532;-1.478;2022-12-29T16:56:46;1.33;;;0.60;;
23146;SDS011;11742;53.532;-1.478;2022-12-29T17:02:06;1.85;;;0.85;;
23146;SDS011;11742;53.532;-1.478;2022-12-29T17:04:36;2.17;;;0.80;;
23146;SDS011;11742;53.532;-1.478;2022-12-29T17:07:02;3.10;;;1.00;;
23146;SDS011;11742;53.532;-1.478;2022-12-29T17:09:28;1.88;;;0.80;;
23146;SDS011;11742;53.532;-1.478;2022-12-29T17:11:56;2.13;;;0.60;;
23146;SDS011;11742;53.532;-1.478;2022-12-29T17:17:01;1.30;;;0.70;;
23146;SDS011;11742;53.532;-1.478;2022-12-29T17:19:30;2.00;;;0.70;;
23146;SDS011;11742;53.532;-1.478;2022-12-29T17:22:01;2.75;;;0.98;;
23146;SDS011;11742;53.532;-1.478;2022-12-29T17:24:27;2.40;;;0.85;;
23146;SDS011;11742;53.532;-1.478;2022-12-29T17:26:54;1.85;;;0.70;;
23146;SDS011;11742;53.532;-1.478;2022-12-29T17:29:26;2.20;;;0.73;;
23146;SDS011;11742;53.532;-1.478;2022-12-29T17:32:00;2.45;;;0.80;;
23146;SDS011;11742;53.532;-1.478;2022-12-29T17:34:28;1.58;;;0.88;;
23146;SDS011;11742;53.532;-1.478;2022-12-29T17:36:54;2.88;;;0.70;;
23146;SDS011;11742;53.532;-1.478;2022-12-29T17:39:20;4.15;;;0.88;;
23146;SDS011;11742;53.532;-1.478;2022-12-29T17:41:45;2.17;;;0.57;;
23146;SDS011;11742;53.532;-1.478;2022-12-29T17:44:18;1.70;;;0.65;;
23146;SDS011;11742;53.532;-1.478;2022-12-29T17:46:45;2.63;;;0.90;;
23146;SDS011;11742;53.532;-1.478;2022-12-29T17:49:13;1.67;;;0.70;;
23146;SDS011;11742;53.532;-1.478;2022-12-29T17:51:41;2.05;;;0.77;;